Terminal Aerodrome Forecast
Issued by NWS

Home | Current Version | Previous Version | Text Only | Print | Product List | Glossary On
Versions: 1 2 3 4 5 6 7 8 9 10 11 12 13 14 15 16 17 18 19 20 21 22 23 24 25 26 27
000
FTUS43 KLOT 300922 AAA
TAFGYY
TAF AMD
KGYY 300922Z 3009/0106 05010G15KT 4SM -SHRA BR SCT003 OVC005 PROB30
      3019/3023 3SM TSRA OVC008CB
     FM302300 15008KT 6SM -SHRA BR OVC008 PROB30 3023/0103 3SM TSRA
      OVC008CB=

USA.gov is the U.S. government's official web portal to all federal, state and local government web resources and services.